Time;durP1;ratioP1;P1;durP2;ratioP2;P2;SDS_P1;SDS_P2;PMS_P1;PMS_P2;Temp;Humidity;BMP_temperature;BMP_pressure;BME280_temperature;BME280_humidity;BME280_pressure;Samples;Min_cycle;Max_cycle;Signal;HPM_P1;HPM_P2
2022/04/14 00:00:29;;;;;;;10.68;8.60;;;11.00;99.90;;;;;;4983095;28;20034;-82
2022/04/14 00:02:55;;;;;;;11.77;9.63;;;11.00;99.90;;;;;;4982972;28;20072;-82
2022/04/14 00:05:21;;;;;;;12.15;9.25;;;11.00;99.90;;;;;;4981590;28;22117;-82
2022/04/14 00:07:47;;;;;;;12.95;9.50;;;11.00;99.90;;;;;;4982656;28;20037;-82
2022/04/14 00:10:14;;;;;;;13.25;9.13;;;11.00;99.90;;;;;;4977336;28;20391;-83
2022/04/14 00:12:40;;;;;;;13.27;9.65;;;11.00;99.90;;;;;;4976256;28;20022;-82
2022/04/14 00:15:06;;;;;;;14.45;10.52;;;10.90;99.90;;;;;;4993321;28;20556;-81
2022/04/14 00:17:33;;;;;;;15.98;10.90;;;10.90;99.90;;;;;;4962723;28;20038;-82
2022/04/14 00:19:59;;;;;;;13.77;10.00;;;10.80;99.90;;;;;;4997491;28;20076;-83
2022/04/14 00:22:25;;;;;;;13.65;10.45;;;10.80;99.90;;;;;;4999166;28;20374;-82
2022/04/14 00:24:51;;;;;;;14.55;10.73;;;10.80;99.90;;;;;;4997668;28;20038;-82
2022/04/14 00:27:20;;;;;;;14.23;10.50;;;10.80;99.90;;;;;;4977233;28;20130;-82
2022/04/14 00:29:49;;;;;;;12.98;9.93;;;10.70;99.90;;;;;;4982397;28;20385;-81
2022/04/14 00:32:15;;;;;;;14.57;10.88;;;10.60;99.90;;;;;;4959886;28;20034;-82
2022/04/14 00:34:41;;;;;;;16.08;12.02;;;10.70;99.90;;;;;;4966636;28;20088;-82
2022/04/14 00:37:07;;;;;;;16.13;11.18;;;10.80;99.90;;;;;;4999506;28;20678;-82
2022/04/14 00:39:32;;;;;;;14.35;10.88;;;10.70;99.90;;;;;;4982946;28;20029;-80
2022/04/14 00:41:58;;;;;;;15.25;10.93;;;10.60;99.90;;;;;;4976817;28;20034;-82
2022/04/14 00:44:23;;;;;;;15.68;11.18;;;10.70;99.90;;;;;;4964737;28;21789;-81
2022/04/14 00:46:49;;;;;;;16.42;11.05;;;10.70;99.90;;;;;;4959195;28;20190;-81
2022/04/14 00:49:15;;;;;;;14.63;10.45;;;10.60;99.90;;;;;;4999550;28;20040;-81
2022/04/14 00:51:41;;;;;;;12.63;9.70;;;10.50;99.90;;;;;;4981271;28;20065;-81
2022/04/14 00:54:06;;;;;;;12.13;9.38;;;10.50;99.90;;;;;;4982418;28;20042;-82
2022/04/14 00:56:32;;;;;;;12.43;9.68;;;10.50;99.90;;;;;;4975711;28;20050;-82
2022/04/14 00:58:58;;;;;;;12.75;10.00;;;10.40;99.90;;;;;;4988357;28;20045;-81
2022/04/14 01:01:24;;;;;;;12.43;9.32;;;10.40;99.90;;;;;;4983336;28;20466;-80
2022/04/14 01:03:51;;;;;;;13.25;9.70;;;10.40;99.90;;;;;;4997508;28;20040;-80
2022/04/14 01:06:20;;;;;;;13.13;9.80;;;10.40;99.90;;;;;;4976356;28;20050;-82
2022/04/14 01:11:31;;;;;;;12.00;8.65;;;10.40;99.90;;;;;;4981381;28;20413;-83
2022/04/14 01:13:57;;;;;;;14.02;10.90;;;10.50;99.90;;;;;;4966322;28;20042;-82
2022/04/14 01:16:22;;;;;;;14.38;10.75;;;10.50;99.90;;;;;;4980700;28;20042;-81
2022/04/14 01:18:48;;;;;;;14.63;10.75;;;10.40;99.90;;;;;;4980734;28;20045;-80
2022/04/14 01:21:14;;;;;;;13.40;10.05;;;10.30;99.90;;;;;;4980157;28;20063;-81
2022/04/14 01:23:44;;;;;;;13.50;10.60;;;10.30;99.90;;;;;;4960440;28;20526;-81
2022/04/14 01:26:10;;;;;;;14.90;11.10;;;10.30;99.90;;;;;;4975023;28;20493;-81
2022/04/14 01:28:36;;;;;;;15.02;11.25;;;10.30;99.90;;;;;;4976467;28;20117;-82
2022/04/14 01:31:02;;;;;;;15.27;12.05;;;10.30;99.90;;;;;;4964859;28;20411;-82
2022/04/14 01:33:27;;;;;;;16.98;12.80;;;10.30;99.90;;;;;;4980642;28;20127;-80
2022/04/14 01:35:53;;;;;;;16.25;12.55;;;10.20;99.90;;;;;;4965501;28;20364;-82
2022/04/14 01:38:18;;;;;;;18.02;13.27;;;10.20;99.90;;;;;;4976609;28;20049;-82
2022/04/14 01:40:44;;;;;;;17.88;13.60;;;10.30;99.90;;;;;;4997468;28;20030;-82
2022/04/14 01:43:10;;;;;;;19.67;15.07;;;10.40;99.90;;;;;;4997669;28;20045;-82
2022/04/14 01:45:35;;;;;;;20.77;15.43;;;10.30;99.90;;;;;;4996420;28;20093;-82
2022/04/14 01:48:01;;;;;;;22.90;16.63;;;10.30;99.90;;;;;;4987686;28;20064;-82
2022/04/14 01:50:26;;;;;;;21.02;15.52;;;10.40;99.90;;;;;;4981103;28;20026;-82
2022/04/14 01:52:52;;;;;;;22.50;16.02;;;10.40;99.90;;;;;;4974857;28;20096;-81
2022/04/14 01:55:18;;;;;;;23.00;16.83;;;10.50;99.90;;;;;;4965522;28;20393;-82
2022/04/14 01:57:44;;;;;;;23.48;16.83;;;10.60;99.90;;;;;;4997710;28;20541;-82
2022/04/14 02:00:13;;;;;;;21.67;16.42;;;10.50;99.90;;;;;;4965365;28;20029;-81
2022/04/14 02:02:39;;;;;;;24.08;16.33;;;10.40;99.90;;;;;;4981245;28;20037;-81
2022/04/14 02:05:05;;;;;;;22.50;15.70;;;10.40;99.90;;;;;;4983801;28;20030;-81
2022/04/14 02:07:31;;;;;;;21.10;16.27;;;10.40;99.90;;;;;;4968967;28;20478;-81
2022/04/14 02:09:57;;;;;;;24.55;16.75;;;10.30;99.90;;;;;;5001997;28;20030;-82
2022/04/14 02:12:22;;;;;;;23.73;16.45;;;10.30;99.90;;;;;;4985120;28;20065;-81
2022/04/14 02:14:48;;;;;;;23.42;17.10;;;10.30;99.90;;;;;;4963255;28;20037;-81
2022/04/14 02:17:14;;;;;;;23.75;16.95;;;10.30;99.90;;;;;;5000506;28;20040;-81
2022/04/14 02:19:40;;;;;;;23.42;16.75;;;10.20;99.90;;;;;;4983883;28;20453;-81
2022/04/14 02:22:05;;;;;;;22.02;15.60;;;10.20;99.90;;;;;;5002756;28;20044;-82
2022/04/14 02:24:31;;;;;;;21.23;15.52;;;10.20;99.90;;;;;;4985544;28;20026;-82
2022/04/14 02:26:56;;;;;;;23.70;15.57;;;10.20;99.90;;;;;;5001912;28;20036;-81
2022/04/14 02:29:22;;;;;;;21.45;16.02;;;10.10;99.90;;;;;;4984921;28;20034;-81
2022/04/14 02:31:47;;;;;;;21.40;15.88;;;10.00;99.90;;;;;;4967402;28;20026;-80
2022/04/14 02:34:13;;;;;;;21.05;15.13;;;10.00;99.90;;;;;;4984149;28;20080;-81
2022/04/14 02:36:39;;;;;;;21.92;16.25;;;10.00;99.90;;;;;;4991513;28;20088;-81
2022/04/14 02:39:05;;;;;;;24.25;16.92;;;10.00;99.90;;;;;;4984011;28;21811;-82
2022/04/14 02:41:30;;;;;;;22.00;16.27;;;10.00;99.90;;;;;;4979002;28;20030;-82
2022/04/14 02:43:56;;;;;;;20.25;14.70;;;10.00;99.90;;;;;;4984342;28;20033;-81
2022/04/14 02:46:21;;;;;;;21.52;15.88;;;10.30;99.90;;;;;;4977325;28;20120;-81
2022/04/14 02:48:47;;;;;;;21.20;15.27;;;10.20;99.90;;;;;;4983775;28;20045;-81
2022/04/14 02:51:13;;;;;;;19.83;14.27;;;10.00;99.90;;;;;;4967857;28;20053;-81
2022/04/14 02:53:38;;;;;;;18.33;13.70;;;9.90;99.90;;;;;;4984588;28;20045;-82
2022/04/14 02:56:05;;;;;;;19.75;14.38;;;10.00;99.90;;;;;;5000897;28;20076;-82
2022/04/14 02:58:32;;;;;;;22.40;15.80;;;9.90;99.90;;;;;;4995008;28;20037;-82
2022/04/14 03:00:58;;;;;;;24.05;16.75;;;9.90;99.90;;;;;;4976962;28;20053;-81
2022/04/14 03:03:24;;;;;;;23.95;16.40;;;9.90;99.90;;;;;;5000912;28;20159;-81
2022/04/14 03:05:50;;;;;;;26.20;16.85;;;9.90;99.90;;;;;;5000160;28;20026;-81
2022/04/14 03:08:17;;;;;;;22.35;15.85;;;9.90;99.90;;;;;;4984742;28;20037;-80
2022/04/14 03:10:43;;;;;;;23.25;17.13;;;10.20;99.90;;;;;;4978105;28;21696;-81
2022/04/14 03:13:08;;;;;;;26.20;17.90;;;10.20;99.90;;;;;;4983914;28;20042;-79
2022/04/14 03:15:34;;;;;;;23.35;16.63;;;10.20;99.90;;;;;;4999911;28;20038;-81
2022/04/14 03:18:00;;;;;;;21.67;16.40;;;10.10;99.90;;;;;;4981792;28;20143;-81
2022/04/14 03:20:25;;;;;;;25.15;18.15;;;10.10;99.90;;;;;;4977100;28;20080;-80
2022/04/14 03:22:51;;;;;;;22.70;16.90;;;10.10;99.90;;;;;;4966785;28;20474;-82
2022/04/14 03:25:16;;;;;;;22.48;17.13;;;10.10;99.90;;;;;;5000376;28;20122;-81
2022/04/14 03:27:42;;;;;;;20.42;15.45;;;10.10;99.90;;;;;;4978136;28;20030;-82
2022/04/14 03:30:10;;;;;;;23.17;17.10;;;10.10;99.90;;;;;;4966036;28;20449;-82
2022/04/14 03:32:44;;;;;;;21.42;17.00;;;10.20;99.90;;;;;;4977884;28;20116;-80
2022/04/14 03:35:11;;;;;;;20.77;15.88;;;10.20;99.90;;;;;;4977024;28;20089;-82
2022/04/14 03:37:37;;;;;;;19.42;15.55;;;10.20;99.90;;;;;;4993266;28;20386;-81
2022/04/14 03:40:04;;;;;;;19.23;14.45;;;10.20;99.90;;;;;;4981351;28;20034;-82
2022/04/14 03:42:30;;;;;;;19.42;15.00;;;10.20;99.90;;;;;;4961395;28;20406;-82
2022/04/14 03:44:56;;;;;;;17.52;13.20;;;10.20;99.90;;;;;;4999572;28;21704;-82
2022/04/14 03:47:21;;;;;;;15.48;13.02;;;10.20;99.90;;;;;;4977830;28;20763;-81
2022/04/14 03:49:47;;;;;;;15.80;12.80;;;10.20;99.90;;;;;;4982825;28;20052;-81
2022/04/14 03:52:13;;;;;;;14.43;12.63;;;10.20;99.90;;;;;;4983211;28;20050;-81
2022/04/14 03:54:38;;;;;;;15.52;13.30;;;10.20;99.90;;;;;;4994150;28;20068;-82
2022/04/14 03:57:04;;;;;;;14.23;12.45;;;10.10;99.90;;;;;;4976651;28;20069;-80
2022/04/14 03:59:30;;;;;;;13.82;12.23;;;10.10;99.90;;;;;;4977655;28;20099;-81
2022/04/14 04:01:55;;;;;;;12.18;10.95;;;10.10;99.90;;;;;;4982686;28;20072;-82
2022/04/14 04:04:21;;;;;;;12.15;10.95;;;10.10;99.90;;;;;;4989176;28;20034;-81
2022/04/14 04:06:47;;;;;;;12.80;11.35;;;10.00;99.90;;;;;;4977292;28;20040;-82
2022/04/14 04:09:12;;;;;;;13.43;12.07;;;10.10;99.90;;;;;;4967006;28;20469;-80
2022/04/14 04:11:38;;;;;;;11.88;10.73;;;10.00;99.90;;;;;;4989760;28;20033;-81
2022/04/14 04:14:04;;;;;;;12.13;10.95;;;10.00;99.90;;;;;;4961914;28;20056;-82
2022/04/14 04:16:30;;;;;;;11.75;10.63;;;9.90;99.90;;;;;;4981212;28;20026;-81
2022/04/14 04:18:55;;;;;;;12.52;10.40;;;9.90;99.90;;;;;;4980590;28;20040;-81
2022/04/14 04:21:31;;;;;;;11.98;10.77;;;9.90;99.90;;;;;;4976728;28;21784;-81
2022/04/14 04:23:57;;;;;;;12.52;11.23;;;9.70;99.90;;;;;;4976279;28;20034;-80
2022/04/14 04:26:23;;;;;;;12.45;11.25;;;9.70;99.90;;;;;;4980050;28;20387;-81
2022/04/14 04:28:48;;;;;;;12.32;11.18;;;9.70;99.90;;;;;;4964302;28;20034;-81
2022/04/14 04:31:14;;;;;;;13.57;11.43;;;9.60;99.90;;;;;;4976922;28;20125;-81
2022/04/14 04:33:39;;;;;;;12.75;11.52;;;9.50;99.90;;;;;;4999739;28;20038;-80
2022/04/14 04:36:07;;;;;;;12.77;11.52;;;9.50;99.90;;;;;;4975143;28;20030;-81
2022/04/14 04:38:32;;;;;;;11.88;10.70;;;9.50;99.90;;;;;;4958809;28;20478;-81
2022/04/14 04:40:58;;;;;;;19.33;12.07;;;9.50;99.90;;;;;;4975637;28;20053;-80
2022/04/14 04:43:25;;;;;;;12.63;11.43;;;9.40;99.90;;;;;;4976814;28;20478;-81
2022/04/14 04:45:51;;;;;;;12.43;11.23;;;9.30;99.90;;;;;;4965305;28;20029;-81
2022/04/14 04:48:16;;;;;;;13.10;11.80;;;9.30;99.90;;;;;;4966415;28;20550;-80
2022/04/14 04:50:42;;;;;;;12.13;11.00;;;9.30;99.90;;;;;;4999659;28;22000;-80
2022/04/14 04:53:08;;;;;;;11.57;10.38;;;9.30;99.90;;;;;;4977763;28;20502;-81
2022/04/14 04:55:34;;;;;;;12.45;10.45;;;9.30;99.90;;;;;;4998782;28;20423;-81
2022/04/14 04:58:00;;;;;;;11.55;10.45;;;9.20;99.90;;;;;;4999291;28;20044;-80
2022/04/14 05:00:26;;;;;;;11.23;10.15;;;9.20;99.90;;;;;;4982782;28;20029;-81
2022/04/14 05:02:51;;;;;;;11.35;10.25;;;9.30;99.90;;;;;;4989093;28;20513;-80
2022/04/14 05:05:18;;;;;;;11.57;10.48;;;9.20;99.90;;;;;;4981132;28;20058;-81
2022/04/14 05:07:44;;;;;;;10.90;9.85;;;9.20;99.90;;;;;;4960131;28;20494;-80
2022/04/14 05:10:09;;;;;;;9.95;8.95;;;9.20;99.90;;;;;;4981363;28;20037;-80
2022/04/14 05:12:35;;;;;;;10.55;9.45;;;9.20;99.90;;;;;;4976332;28;20041;-80
2022/04/14 05:15:00;;;;;;;11.23;10.10;;;9.30;99.90;;;;;;4980069;28;20018;-79
2022/04/14 05:17:26;;;;;;;11.27;10.10;;;9.30;99.90;;;;;;4981006;28;20663;-79
2022/04/14 05:19:52;;;;;;;10.48;9.43;;;9.30;99.90;;;;;;4990946;28;20133;-80
2022/04/14 05:22:17;;;;;;;11.73;10.52;;;9.30;99.90;;;;;;4998193;28;20162;-81
2022/04/14 05:24:43;;;;;;;10.75;9.65;;;9.30;99.90;;;;;;4982101;28;20030;-81
2022/04/14 05:27:08;;;;;;;17.92;10.70;;;9.30;99.90;;;;;;4965297;28;20524;-81
2022/04/14 05:29:36;;;;;;;12.90;11.02;;;9.40;99.90;;;;;;4975585;28;20538;-81
2022/04/14 05:32:01;;;;;;;12.25;10.95;;;9.40;99.90;;;;;;4976194;28;20034;-80
2022/04/14 05:34:27;;;;;;;14.25;10.48;;;9.40;99.90;;;;;;4980372;28;20112;-80
2022/04/14 05:36:52;;;;;;;13.02;11.35;;;9.40;99.90;;;;;;4981124;28;20044;-80
2022/04/14 05:39:18;;;;;;;11.80;9.95;;;9.40;99.90;;;;;;4968194;28;20068;-79
2022/04/14 05:41:44;;;;;;;13.00;11.35;;;9.40;99.90;;;;;;4967722;28;20088;-80
2022/04/14 05:44:10;;;;;;;12.65;10.38;;;9.40;99.90;;;;;;4968912;28;20128;-80
2022/04/14 05:46:35;;;;;;;13.50;11.52;;;9.40;99.90;;;;;;5002087;28;20038;-80
2022/04/14 05:49:01;;;;;;;13.75;12.18;;;9.40;99.90;;;;;;5001059;28;20034;-80
2022/04/14 05:51:27;;;;;;;17.98;12.23;;;9.50;99.90;;;;;;4993895;28;20054;-80
2022/04/14 05:53:53;;;;;;;12.45;10.80;;;9.50;99.90;;;;;;4962685;28;20034;-80
2022/04/14 05:56:19;;;;;;;13.48;11.50;;;9.50;99.90;;;;;;4964315;28;20266;-81
2022/04/14 05:58:45;;;;;;;13.25;11.60;;;9.50;99.90;;;;;;4967498;28;20049;-81
2022/04/14 06:01:12;;;;;;;11.88;10.63;;;9.50;99.90;;;;;;4994937;28;20041;-81
2022/04/14 06:03:38;;;;;;;13.02;11.05;;;9.60;99.90;;;;;;4984030;28;20025;-80
2022/04/14 06:06:04;;;;;;;11.82;10.30;;;9.70;99.90;;;;;;5000441;28;20103;-81
2022/04/14 06:08:30;;;;;;;21.15;11.95;;;9.70;99.90;;;;;;4984644;28;20041;-80
2022/04/14 06:10:56;;;;;;;13.93;11.73;;;9.80;99.90;;;;;;4978187;28;20474;-82
2022/04/14 06:13:22;;;;;;;15.02;11.55;;;9.90;99.90;;;;;;4962733;28;20052;-81
2022/04/14 06:15:47;;;;;;;14.23;11.38;;;9.90;99.90;;;;;;4979596;28;20029;-81
2022/04/14 06:18:13;;;;;;;15.23;11.88;;;9.90;99.90;;;;;;4983763;28;20490;-80
2022/04/14 06:20:38;;;;;;;14.32;11.48;;;10.00;99.90;;;;;;5001640;28;20034;-81
2022/04/14 06:23:04;;;;;;;13.93;12.50;;;10.10;99.90;;;;;;4958094;28;20064;-81
2022/04/14 06:25:30;;;;;;;13.95;10.75;;;10.20;99.90;;;;;;4964863;28;20030;-81
2022/04/14 06:27:56;;;;;;;14.25;11.45;;;10.20;99.90;;;;;;4968105;28;20061;-81
2022/04/14 06:30:22;;;;;;;10.73;8.18;;;10.30;99.90;;;;;;4976697;28;20805;-80
2022/04/14 06:33:04;;;;;;;23.27;18.83;;;10.40;99.90;;;;;;4977374;28;20038;-81
2022/04/14 06:35:30;;;;;;;14.55;12.43;;;10.40;99.90;;;;;;4981940;28;20034;-81
2022/04/14 06:37:56;;;;;;;21.55;17.05;;;10.60;99.90;;;;;;4983117;28;20030;-81
2022/04/14 06:40:22;;;;;;;21.38;18.75;;;10.70;99.90;;;;;;4977283;28;20033;-80
2022/04/14 06:42:48;;;;;;;25.17;20.88;;;10.70;99.90;;;;;;4977309;28;20029;-81
2022/04/14 06:45:15;;;;;;;17.95;15.48;;;10.70;99.90;;;;;;4981968;28;20750;-81
2022/04/14 06:47:41;;;;;;;18.23;14.93;;;10.80;99.90;;;;;;4982925;28;20034;-81
2022/04/14 06:50:07;;;;;;;19.05;15.05;;;11.00;99.90;;;;;;4983818;28;20085;-81
2022/04/14 06:52:33;;;;;;;16.90;14.20;;;11.10;99.90;;;;;;4965800;28;20104;-80
2022/04/14 06:54:59;;;;;;;18.00;14.57;;;11.20;99.90;;;;;;4977562;28;20121;-80
2022/04/14 06:57:25;;;;;;;19.67;15.73;;;11.50;99.90;;;;;;4978172;28;20049;-82
2022/04/14 06:59:50;;;;;;;25.75;20.60;;;11.40;99.90;;;;;;4982322;28;20033;-81
2022/04/14 07:02:16;;;;;;;23.75;18.10;;;11.50;99.90;;;;;;4984192;28;20076;-81
2022/04/14 07:04:42;;;;;;;24.35;19.95;;;11.70;99.90;;;;;;4978140;28;20030;-80
2022/04/14 07:07:07;;;;;;;25.88;21.83;;;11.80;99.90;;;;;;4994227;28;20100;-81
2022/04/14 07:09:34;;;;;;;27.73;22.75;;;11.90;99.90;;;;;;4983841;28;20044;-82
2022/04/14 07:12:00;;;;;;;25.30;20.20;;;11.90;99.90;;;;;;4999720;28;20285;-83
2022/04/14 07:14:30;;;;;;;30.55;23.92;;;12.00;99.90;;;;;;4979417;28;20747;-82
2022/04/14 07:16:57;;;;;;;;;;;12.00;99.90;;;;;;5001707;28;20127;-81
2022/04/14 07:19:22;;;;;;;27.23;21.27;;;12.00;99.90;;;;;;5000512;28;19917;-82
2022/04/14 07:21:48;;;;;;;21.38;17.13;;;12.30;99.90;;;;;;4982530;28;20418;-81
2022/04/14 07:24:14;;;;;;;21.83;18.05;;;12.50;99.90;;;;;;4967757;28;20065;-82
2022/04/14 07:26:40;;;;;;;21.20;17.38;;;12.50;99.90;;;;;;4976694;28;20063;-81
2022/04/14 07:29:05;;;;;;;20.88;17.67;;;12.60;99.90;;;;;;4977657;28;20045;-80
2022/04/14 07:31:31;;;;;;;16.55;14.30;;;12.70;99.90;;;;;;4978254;28;20441;-81
2022/04/14 07:33:58;;;;;;;18.98;15.63;;;13.00;99.90;;;;;;4982703;28;20025;-82
2022/04/14 07:36:23;;;;;;;19.10;15.43;;;13.00;99.90;;;;;;4977271;28;20228;-83
2022/04/14 07:38:49;;;;;;;22.15;17.30;;;13.10;99.90;;;;;;4967260;28;20217;-83
2022/04/14 07:41:14;;;;;;;21.15;17.90;;;13.00;99.90;;;;;;5001015;28;20049;-82
2022/04/14 07:43:40;;;;;;;21.23;18.40;;;13.00;99.90;;;;;;4998435;28;20045;-81
2022/04/14 07:46:06;;;;;;;18.90;16.10;;;13.10;99.90;;;;;;4945294;28;20034;-82
2022/04/14 07:48:32;;;;;;;22.45;16.83;;;13.30;99.90;;;;;;4982720;28;20525;-81
2022/04/14 07:50:59;;;;;;;16.95;14.25;;;13.40;99.90;;;;;;4999504;28;20057;-83
2022/04/14 07:53:25;;;;;;;21.23;16.75;;;13.70;99.90;;;;;;5000621;28;20539;-81
2022/04/14 07:55:50;;;;;;;19.58;14.95;;;13.70;99.90;;;;;;4999580;28;20022;-83
2022/04/14 07:58:16;;;;;;;19.85;16.60;;;13.80;99.90;;;;;;4998489;28;20042;-83
2022/04/14 08:00:42;;;;;;;19.80;16.25;;;13.90;99.90;;;;;;4982011;28;20121;-83
2022/04/14 08:03:09;;;;;;;21.50;18.02;;;13.90;99.90;;;;;;4989527;28;20042;-82
2022/04/14 08:05:41;;;;;;;17.13;14.70;;;13.90;99.90;;;;;;4993634;28;20054;-84
2022/04/14 08:08:10;;;;;;;19.05;16.13;;;14.00;99.90;;;;;;4982201;28;20038;-82
2022/04/14 08:10:36;;;;;;;21.83;16.98;;;14.00;99.90;;;;;;5000168;28;21726;-83
2022/04/14 08:13:01;;;;;;;19.42;15.80;;;14.10;99.90;;;;;;4962216;28;20262;-83
2022/04/14 08:15:28;;;;;;;22.17;16.38;;;14.30;99.90;;;;;;5000010;28;20041;-84
2022/04/14 08:17:55;;;;;;;17.70;14.52;;;14.30;99.90;;;;;;4998494;28;20117;-82
2022/04/14 08:20:21;;;;;;;18.67;15.10;;;14.50;99.90;;;;;;4993506;28;20088;-82
2022/04/14 08:22:49;;;;;;;16.45;13.73;;;14.80;99.90;;;;;;4999541;28;20044;-82
2022/04/14 08:25:20;;;;;;;16.58;13.38;;;15.00;99.90;;;;;;4982267;28;20026;-82
2022/04/14 08:27:47;;;;;;;17.77;12.18;;;15.10;99.90;;;;;;4983761;28;20548;-83
2022/04/14 08:30:17;;;;;;;13.60;11.15;;;15.00;99.90;;;;;;4993970;28;20044;-82
2022/04/14 08:32:44;;;;;;;14.10;10.40;;;15.30;99.90;;;;;;4997487;28;20038;-82
2022/04/14 08:35:11;;;;;;;14.40;10.27;;;15.60;99.90;;;;;;4963955;28;20066;-83
2022/04/14 08:37:38;;;;;;;28.52;12.80;;;15.50;99.90;;;;;;4983386;28;20041;-82
2022/04/14 08:40:06;;;;;;;15.75;11.45;;;15.10;99.90;;;;;;4975676;28;20062;-83
2022/04/14 08:42:39;;;;;;;13.32;9.55;;;15.20;99.90;;;;;;4981867;28;20037;-82
2022/04/14 08:45:11;;;;;;;12.25;7.70;;;15.50;99.90;;;;;;4960920;28;20125;-83
2022/04/14 08:47:39;;;;;;;12.52;8.05;;;15.90;99.90;;;;;;4960128;28;20022;-82
2022/04/14 08:50:06;;;;;;;10.25;7.97;;;16.00;99.90;;;;;;4976841;28;20070;-83
2022/04/14 08:52:34;;;;;;;11.25;8.30;;;16.10;99.90;;;;;;4982766;28;20137;-84
2022/04/14 08:55:05;;;;;;;12.52;8.82;;;15.80;99.90;;;;;;5000086;28;21850;-84
2022/04/14 08:57:32;;;;;;;10.27;7.85;;;15.70;99.90;;;;;;4976455;28;20048;-83
2022/04/14 08:59:59;;;;;;;13.50;9.07;;;15.90;99.90;;;;;;4998814;28;20121;-83
2022/04/14 09:02:26;;;;;;;11.18;8.77;;;16.10;99.90;;;;;;4982191;28;20048;-83
2022/04/14 09:04:52;;;;;;;10.10;8.43;;;16.20;99.90;;;;;;4998222;28;20120;-83
2022/04/14 09:07:18;;;;;;;9.23;7.32;;;16.40;99.90;;;;;;4979702;28;20121;-80
2022/04/14 09:09:45;;;;;;;7.65;5.40;;;17.00;99.90;;;;;;4981485;28;20033;-82
2022/04/14 09:12:11;;;;;;;4.82;3.80;;;17.70;99.90;;;;;;4982517;28;20029;-83
2022/04/14 09:14:37;;;;;;;7.10;4.22;;;17.80;99.90;;;;;;4968904;28;20704;-84
2022/04/14 09:17:07;;;;;;;5.35;4.00;;;17.50;99.90;;;;;;5002367;28;20033;-84
2022/04/14 09:19:34;;;;;;;;;;;17.20;99.90;;;;;;5002799;28;20041;-82
2022/04/14 09:22:08;;;;;;;5.47;3.60;;;16.80;99.90;;;;;;4969297;28;19909;-83
2022/04/14 09:24:49;;;;;;;6.68;2.78;;;17.20;99.90;;;;;;5002271;28;20022;-82
2022/04/14 09:27:33;;;;;;;5.60;2.70;;;17.10;99.90;;;;;;4984092;28;20030;-82
2022/04/14 09:30:05;;;;;;;8.20;4.00;;;17.60;99.90;;;;;;4979208;28;20045;-83
2022/04/14 09:32:37;;;;;;;6.68;4.43;;;17.20;99.90;;;;;;4979483;28;20075;-83
2022/04/14 09:35:04;;;;;;;6.60;4.47;;;17.00;99.90;;;;;;5003786;28;20491;-82
2022/04/14 09:37:31;;;;;;;7.10;4.43;;;16.90;99.90;;;;;;4984164;28;20463;-83
2022/04/14 09:40:08;;;;;;;4.38;2.65;;;16.60;99.90;;;;;;5002203;28;20057;-83
2022/04/14 09:42:43;;;;;;;6.45;3.92;;;17.00;99.90;;;;;;4989602;28;20033;-84
2022/04/14 09:45:23;;;;;;;5.78;3.72;;;17.00;99.90;;;;;;4978763;28;20038;-83
2022/04/14 09:47:50;;;;;;;6.65;3.58;;;17.00;99.90;;;;;;4984046;28;20036;-81
2022/04/14 09:50:49;;;;;;;4.22;2.70;;;17.60;99.90;;;;;;4984435;28;20375;-83
2022/04/14 09:53:19;;;;;;;5.87;4.27;;;17.50;99.90;;;;;;4984406;28;20030;-83
2022/04/14 09:55:50;;;;;;;4.85;3.72;;;17.20;99.90;;;;;;4985431;28;20038;-82
2022/04/14 09:58:18;;;;;;;5.25;3.47;;;17.20;99.90;;;;;;5002562;28;20048;-82
2022/04/14 10:00:50;;;;;;;3.88;2.25;;;17.20;99.90;;;;;;4979063;28;20072;-82
2022/04/14 10:03:27;;;;;;;5.43;2.65;;;17.90;99.90;;;;;;4985440;28;20552;-84
2022/04/14 10:05:55;;;;;;;4.32;2.80;;;18.10;99.90;;;;;;4983316;28;20073;-82
2022/04/14 10:08:22;;;;;;;3.90;2.28;;;17.40;99.90;;;;;;4963183;28;20053;-80
2022/04/14 10:10:50;;;;;;;5.05;2.55;;;17.70;99.90;;;;;;4963329;28;20069;-83
2022/04/14 10:13:17;;;;;;;7.35;2.30;;;17.80;99.90;;;;;;4969360;28;20034;-82
2022/04/14 10:15:48;;;;;;;3.97;1.55;;;17.60;99.90;;;;;;5001018;28;20452;-83
2022/04/14 10:18:16;;;;;;;4.85;1.42;;;17.80;99.90;;;;;;4982984;28;20066;-82
2022/04/14 10:20:44;;;;;;;1.83;0.80;;;18.00;99.90;;;;;;4978315;28;20359;-84
2022/04/14 10:23:11;;;;;;;4.28;2.10;;;18.70;99.90;;;;;;4985007;28;20040;-83
2022/04/14 10:25:38;;;;;;;3.05;1.40;;;18.50;99.90;;;;;;4977435;28;20049;-84
2022/04/14 10:28:14;;;;;;;3.75;1.77;;;18.40;99.90;;;;;;5001150;28;20482;-83
2022/04/14 10:30:55;;;;;;;1.98;0.90;;;18.60;99.90;;;;;;4977657;28;20030;-82
2022/04/14 10:33:22;;;;;;;5.45;1.52;;;18.30;99.90;;;;;;4980807;28;20474;-83
2022/04/14 10:35:48;;;;;;;5.70;3.35;;;18.20;99.90;;;;;;5001813;28;20038;-85
2022/04/14 10:38:51;;;;;;;6.05;2.75;;;17.80;99.90;;;;;;4986107;28;20045;-84
2022/04/14 10:41:21;;;;;;;6.82;3.50;;;18.00;99.90;;;;;;4966521;28;20384;-82
2022/04/14 10:43:47;;;;;;;4.97;2.53;;;18.20;99.90;;;;;;4984528;28;20033;-82
2022/04/14 10:46:16;;;;;;;4.68;2.75;;;18.10;99.90;;;;;;4984172;28;20033;-84
2022/04/14 10:48:44;;;;;;;8.15;3.65;;;18.40;99.90;;;;;;5002768;28;20018;-84
2022/04/14 10:51:29;;;;;;;5.20;3.00;;;18.60;99.90;;;;;;4983485;28;20076;-84
2022/04/14 10:54:00;;;;;;;4.88;2.17;;;18.90;99.90;;;;;;5002272;28;20049;-81
2022/04/14 10:56:38;;;;;;;5.00;1.85;;;19.00;99.90;;;;;;5000242;28;20132;-81
2022/04/14 10:59:05;;;;;;;4.38;1.40;;;19.10;99.90;;;;;;4982069;28;20523;-84
2022/04/14 11:01:46;;;;;;;6.43;2.78;;;19.40;99.90;;;;;;4983707;28;20111;-85
2022/04/14 11:04:30;;;;;;;3.65;2.50;;;18.90;99.90;;;;;;4992252;28;20034;-85
2022/04/14 11:07:12;;;;;;;5.10;2.33;;;19.00;99.90;;;;;;4983846;28;20033;-82
2022/04/14 11:09:48;;;;;;;5.68;2.47;;;19.50;99.90;;;;;;4983298;28;20064;-85
2022/04/14 11:12:55;;;;;;;7.82;4.18;;;19.10;99.90;;;;;;4993754;28;20029;-85
2022/04/14 11:15:31;;;;;;;7.10;3.45;;;18.90;99.90;;;;;;4961594;28;20100;-83
2022/04/14 11:18:04;;;;;;;5.70;2.88;;;18.90;99.90;;;;;;4977552;28;20052;-82
2022/04/14 11:20:30;;;;;;;3.38;1.85;;;19.30;99.90;;;;;;5000300;28;20026;-82
2022/04/14 11:23:08;;;;;;;4.80;2.65;;;19.40;99.90;;;;;;4982765;28;20390;-83
2022/04/14 11:25:49;;;;;;;5.70;2.58;;;19.30;99.90;;;;;;4982181;28;20065;-83
2022/04/14 11:28:25;;;;;;;5.03;2.92;;;19.80;99.90;;;;;;4960479;28;20038;-83
2022/04/14 11:30:58;;;;;;;5.63;3.30;;;19.70;99.90;;;;;;4982620;28;20058;-84
2022/04/14 11:33:44;;;;;;;4.78;2.50;;;19.60;99.90;;;;;;4977950;28;20037;-84
2022/04/14 11:36:18;;;;;;;6.85;3.05;;;19.00;99.90;;;;;;4964909;28;20566;-80
2022/04/14 11:39:01;;;;;;;5.43;2.15;;;19.40;99.90;;;;;;4960530;28;20045;-83
2022/04/14 11:41:37;;;;;;;4.97;2.30;;;19.60;99.90;;;;;;4976462;28;20399;-83
2022/04/14 11:44:12;;;;;;;7.00;1.80;;;19.30;99.90;;;;;;4999477;28;20053;-81
2022/04/14 11:46:52;;;;;;;6.93;2.90;;;19.50;99.90;;;;;;4999985;28;20034;-85
2022/04/14 11:49:21;;;;;;;6.43;2.60;;;19.10;99.90;;;;;;4961654;28;20061;-85
2022/04/14 11:52:07;;;;;;;4.57;2.25;;;19.30;99.90;;;;;;4999052;28;20052;-84
2022/04/14 11:54:33;;;;;;;5.82;2.63;;;19.50;99.90;;;;;;4999601;28;20053;-83
2022/04/14 11:57:01;;;;;;;6.25;2.50;;;19.50;99.90;;;;;;5000386;28;20061;-83
2022/04/14 11:59:34;;;;;;;4.97;2.08;;;19.70;99.90;;;;;;4977768;28;20037;-84
2022/04/14 12:02:11;;;;;;;6.68;2.58;;;19.50;99.90;;;;;;4981507;28;20116;-82
2022/04/14 12:04:43;;;;;;;4.28;1.67;;;19.60;99.90;;;;;;4979340;28;20076;-82
2022/04/14 12:07:10;;;;;;;5.10;2.42;;;19.60;99.90;;;;;;4966132;28;20423;-84
2022/04/14 12:09:37;;;;;;;5.35;2.53;;;19.60;99.90;;;;;;4982729;28;20100;-84
2022/04/14 12:12:17;;;;;;;7.28;1.92;;;19.50;99.90;;;;;;4958189;28;20057;-85
2022/04/14 12:14:48;;;;;;;6.13;2.13;;;19.70;99.90;;;;;;4978097;28;20096;-84
2022/04/14 12:17:16;;;;;;;4.25;1.42;;;19.70;99.90;;;;;;4997865;28;20519;-85
2022/04/14 12:19:47;;;;;;;5.50;1.42;;;19.30;99.90;;;;;;4961205;28;20041;-88
2022/04/14 12:22:14;;;;;;;4.15;0.90;;;19.00;99.90;;;;;;4961435;28;20574;-81
2022/04/14 12:24:46;;;;;;;2.83;0.77;;;19.50;99.90;;;;;;4991872;28;20029;-84
2022/04/14 12:27:23;;;;;;;3.47;1.10;;;19.70;99.90;;;;;;4990304;28;20219;-84
2022/04/14 12:29:57;;;;;;;7.55;1.65;;;20.20;99.90;;;;;;4975631;28;20090;-83
2022/04/14 12:32:27;;;;;;;3.88;1.20;;;20.00;99.90;;;;;;4980461;28;20060;-83
2022/04/14 12:34:54;;;;;;;4.60;1.45;;;19.70;99.90;;;;;;4975093;28;20037;-83
2022/04/14 12:37:20;;;;;;;4.32;1.20;;;19.10;99.90;;;;;;4959346;28;20044;-83
2022/04/14 12:40:14;;;;;;;4.32;1.40;;;18.90;99.90;;;;;;4979717;28;20041;-82
2022/04/14 12:42:41;;;;;;;3.60;0.90;;;18.80;99.90;;;;;;4975122;28;20190;-83